sensor_id;sensor_type;location;lat;lon;timestamp;temperature;humidity
12911;DHT22;6523;49.758;6.120;2023-06-04T00:00:29;10.50;99.90
12911;DHT22;6523;49.758;6.120;2023-06-04T00:02:54;10.70;99.90
12911;DHT22;6523;49.758;6.120;2023-06-04T00:05:20;10.70;99.90
12911;DHT22;6523;49.758;6.120;2023-06-04T00:07:47;10.60;99.90
12911;DHT22;6523;49.758;6.120;2023-06-04T00:10:13;10.70;99.90
12911;DHT22;6523;49.758;6.120;2023-06-04T00:12:38;10.70;99.90
12911;DHT22;6523;49.758;6.120;2023-06-04T00:15:04;10.80;99.90
12911;DHT22;6523;49.758;6.120;2023-06-04T00:17:30;10.70;99.90
12911;DHT22;6523;49.758;6.120;2023-06-04T00:19:56;10.60;99.90
12911;DHT22;6523;49.758;6.120;2023-06-04T00:22:21;10.50;99.90
12911;DHT22;6523;49.758;6.120;2023-06-04T00:24:47;10.30;99.90
12911;DHT22;6523;49.758;6.120;2023-06-04T00:27:12;10.40;99.90
12911;DHT22;6523;49.758;6.120;2023-06-04T00:29:38;10.30;99.90
12911;DHT22;6523;49.758;6.120;2023-06-04T00:32:04;10.50;99.90
12911;DHT22;6523;49.758;6.120;2023-06-04T00:34:29;10.50;99.90
12911;DHT22;6523;49.758;6.120;2023-06-04T00:36:55;10.50;99.90
12911;DHT22;6523;49.758;6.120;2023-06-04T00:39:21;10.60;99.90
12911;DHT22;6523;49.758;6.120;2023-06-04T00:41:46;10.40;99.90
12911;DHT22;6523;49.758;6.120;2023-06-04T00:44:12;10.60;99.90
12911;DHT22;6523;49.758;6.120;2023-06-04T00:46:37;10.70;99.90
12911;DHT22;6523;49.758;6.120;2023-06-04T00:49:05;10.40;99.90
12911;DHT22;6523;49.758;6.120;2023-06-04T00:51:32;10.20;99.90
12911;DHT22;6523;49.758;6.120;2023-06-04T00:53:59;10.20;99.90
12911;DHT22;6523;49.758;6.120;2023-06-04T00:56:24;10.30;99.90
12911;DHT22;6523;49.758;6.120;2023-06-04T00:58:50;10.20;99.90
12911;DHT22;6523;49.758;6.120;2023-06-04T01:03:47;10.20;99.90
12911;DHT22;6523;49.758;6.120;2023-06-04T01:06:35;10.10;99.90
12911;DHT22;6523;49.758;6.120;2023-06-04T01:09:01;9.70;99.90
12911;DHT22;6523;49.758;6.120;2023-06-04T01:11:38;9.70;99.90
12911;DHT22;6523;49.758;6.120;2023-06-04T01:14:05;9.90;99.90
12911;DHT22;6523;49.758;6.120;2023-06-04T01:22:03;9.90;99.90
12911;DHT22;6523;49.758;6.120;2023-06-04T01:24:34;9.80;99.90
12911;DHT22;6523;49.758;6.120;2023-06-04T01:27:02;9.90;99.90
12911;DHT22;6523;49.758;6.120;2023-06-04T01:29:29;10.00;99.90
12911;DHT22;6523;49.758;6.120;2023-06-04T01:31:55;10.20;99.90
12911;DHT22;6523;49.758;6.120;2023-06-04T01:34:22;10.30;99.90
12911;DHT22;6523;49.758;6.120;2023-06-04T01:36:47;10.00;99.90
12911;DHT22;6523;49.758;6.120;2023-06-04T01:39:13;10.00;99.90
12911;DHT22;6523;49.758;6.120;2023-06-04T01:41:39;9.90;99.90
12911;DHT22;6523;49.758;6.120;2023-06-04T01:44:04;10.00;99.90
12911;DHT22;6523;49.758;6.120;2023-06-04T01:46:30;9.70;99.90
12911;DHT22;6523;49.758;6.120;2023-06-04T01:48:59;9.60;99.90
12911;DHT22;6523;49.758;6.120;2023-06-04T01:51:24;9.60;99.90
12911;DHT22;6523;49.758;6.120;2023-06-04T01:53:50;9.80;99.90
12911;DHT22;6523;49.758;6.120;2023-06-04T01:56:15;9.70;99.90
12911;DHT22;6523;49.758;6.120;2023-06-04T01:58:41;9.40;99.90
12911;DHT22;6523;49.758;6.120;2023-06-04T02:01:07;9.20;99.90
12911;DHT22;6523;49.758;6.120;2023-06-04T02:03:32;9.10;99.90
12911;DHT22;6523;49.758;6.120;2023-06-04T02:06:03;9.20;99.90
12911;DHT22;6523;49.758;6.120;2023-06-04T02:08:30;9.30;99.90
12911;DHT22;6523;49.758;6.120;2023-06-04T02:10:55;9.00;99.90
12911;DHT22;6523;49.758;6.120;2023-06-04T02:13:21;9.40;99.90
12911;DHT22;6523;49.758;6.120;2023-06-04T02:15:46;9.60;99.90
12911;DHT22;6523;49.758;6.120;2023-06-04T02:18:19;9.40;99.90
12911;DHT22;6523;49.758;6.120;2023-06-04T02:20:49;9.40;99.90
12911;DHT22;6523;49.758;6.120;2023-06-04T02:23:16;9.10;99.90
12911;DHT22;6523;49.758;6.120;2023-06-04T02:25:43;9.00;99.90
12911;DHT22;6523;49.758;6.120;2023-06-04T02:28:12;9.10;99.90
12911;DHT22;6523;49.758;6.120;2023-06-04T02:30:38;9.10;99.90
12911;DHT22;6523;49.758;6.120;2023-06-04T02:33:03;8.90;99.90
12911;DHT22;6523;49.758;6.120;2023-06-04T02:35:29;8.90;99.90
12911;DHT22;6523;49.758;6.120;2023-06-04T02:37:55;8.70;99.90
12911;DHT22;6523;49.758;6.120;2023-06-04T02:40:24;8.70;99.90
12911;DHT22;6523;49.758;6.120;2023-06-04T02:42:52;8.80;99.90
12911;DHT22;6523;49.758;6.120;2023-06-04T02:45:17;9.00;99.90
12911;DHT22;6523;49.758;6.120;2023-06-04T02:47:43;9.20;99.90
12911;DHT22;6523;49.758;6.120;2023-06-04T02:50:08;8.70;99.90
12911;DHT22;6523;49.758;6.120;2023-06-04T02:52:34;8.60;99.90
12911;DHT22;6523;49.758;6.120;2023-06-04T02:55:06;8.70;99.90
12911;DHT22;6523;49.758;6.120;2023-06-04T02:57:32;8.50;99.90
12911;DHT22;6523;49.758;6.120;2023-06-04T02:59:59;8.60;99.90
12911;DHT22;6523;49.758;6.120;2023-06-04T03:02:24;8.70;99.90
12911;DHT22;6523;49.758;6.120;2023-06-04T03:04:50;8.60;99.90
12911;DHT22;6523;49.758;6.120;2023-06-04T03:07:16;8.40;99.90
12911;DHT22;6523;49.758;6.120;2023-06-04T03:09:46;8.50;99.90
12911;DHT22;6523;49.758;6.120;2023-06-04T03:12:12;8.40;99.90
12911;DHT22;6523;49.758;6.120;2023-06-04T03:14:38;8.40;99.90
12911;DHT22;6523;49.758;6.120;2023-06-04T03:17:04;8.20;99.90
12911;DHT22;6523;49.758;6.120;2023-06-04T03:19:40;8.20;99.90
12911;DHT22;6523;49.758;6.120;2023-06-04T03:22:07;8.20;99.90
12911;DHT22;6523;49.758;6.120;2023-06-04T03:24:34;8.10;99.90
12911;DHT22;6523;49.758;6.120;2023-06-04T03:27:02;8.10;99.90
12911;DHT22;6523;49.758;6.120;2023-06-04T03:29:27;8.20;99.90
12911;DHT22;6523;49.758;6.120;2023-06-04T03:31:53;8.10;99.90
12911;DHT22;6523;49.758;6.120;2023-06-04T03:34:18;7.90;99.90
12911;DHT22;6523;49.758;6.120;2023-06-04T03:36:44;8.00;99.90
12911;DHT22;6523;49.758;6.120;2023-06-04T03:39:10;7.90;99.90
12911;DHT22;6523;49.758;6.120;2023-06-04T03:41:36;8.20;99.90
12911;DHT22;6523;49.758;6.120;2023-06-04T03:44:01;8.40;99.90
12911;DHT22;6523;49.758;6.120;2023-06-04T03:46:27;8.60;99.90
12911;DHT22;6523;49.758;6.120;2023-06-04T03:48:57;8.40;99.90
12911;DHT22;6523;49.758;6.120;2023-06-04T03:51:22;8.20;99.90
12911;DHT22;6523;49.758;6.120;2023-06-04T03:53:48;8.30;99.90
12911;DHT22;6523;49.758;6.120;2023-06-04T03:56:13;8.50;99.90
12911;DHT22;6523;49.758;6.120;2023-06-04T03:58:39;8.50;99.90
12911;DHT22;6523;49.758;6.120;2023-06-04T04:01:05;8.50;99.90
12911;DHT22;6523;49.758;6.120;2023-06-04T04:03:30;8.40;99.90
12911;DHT22;6523;49.758;6.120;2023-06-04T04:05:57;8.70;99.90
12911;DHT22;6523;49.758;6.120;2023-06-04T04:08:23;8.80;99.90
12911;DHT22;6523;49.758;6.120;2023-06-04T04:10:49;8.70;99.90
12911;DHT22;6523;49.758;6.120;2023-06-04T04:13:15;8.50;99.90
12911;DHT22;6523;49.758;6.120;2023-06-04T04:15:40;8.50;99.90
12911;DHT22;6523;49.758;6.120;2023-06-04T04:18:06;8.30;99.90
12911;DHT22;6523;49.758;6.120;2023-06-04T04:20:33;8.40;99.90
12911;DHT22;6523;49.758;6.120;2023-06-04T04:22:59;8.60;99.90
12911;DHT22;6523;49.758;6.120;2023-06-04T04:25:25;8.60;99.90
12911;DHT22;6523;49.758;6.120;2023-06-04T04:27:51;8.40;99.90
12911;DHT22;6523;49.758;6.120;2023-06-04T04:30:17;8.50;99.90
12911;DHT22;6523;49.758;6.120;2023-06-04T04:32:43;8.60;99.90
12911;DHT22;6523;49.758;6.120;2023-06-04T04:35:14;8.60;99.90
12911;DHT22;6523;49.758;6.120;2023-06-04T04:37:44;8.40;99.90
12911;DHT22;6523;49.758;6.120;2023-06-04T04:40:10;8.60;99.90
12911;DHT22;6523;49.758;6.120;2023-06-04T04:42:37;8.90;99.90
12911;DHT22;6523;49.758;6.120;2023-06-04T04:45:02;9.00;99.90
12911;DHT22;6523;49.758;6.120;2023-06-04T04:47:28;9.00;99.90
12911;DHT22;6523;49.758;6.120;2023-06-04T04:49:54;9.10;99.90
12911;DHT22;6523;49.758;6.120;2023-06-04T04:52:19;9.10;99.90
12911;DHT22;6523;49.758;6.120;2023-06-04T04:54:45;9.00;99.90
12911;DHT22;6523;49.758;6.120;2023-06-04T04:57:10;9.10;99.90
12911;DHT22;6523;49.758;6.120;2023-06-04T04:59:36;9.10;99.90
12911;DHT22;6523;49.758;6.120;2023-06-04T05:02:01;9.30;99.90
12911;DHT22;6523;49.758;6.120;2023-06-04T05:04:27;9.40;99.90
12911;DHT22;6523;49.758;6.120;2023-06-04T05:06:53;9.60;99.90
12911;DHT22;6523;49.758;6.120;2023-06-04T05:09:18;9.80;99.90
12911;DHT22;6523;49.758;6.120;2023-06-04T05:11:44;9.80;99.90
12911;DHT22;6523;49.758;6.120;2023-06-04T05:14:10;9.80;99.90
12911;DHT22;6523;49.758;6.120;2023-06-04T05:16:36;9.80;99.90
12911;DHT22;6523;49.758;6.120;2023-06-04T05:19:03;10.00;99.90
12911;DHT22;6523;49.758;6.120;2023-06-04T05:21:29;10.00;99.90
12911;DHT22;6523;49.758;6.120;2023-06-04T05:23:55;10.20;99.90
12911;DHT22;6523;49.758;6.120;2023-06-04T05:26:21;10.30;99.90
12911;DHT22;6523;49.758;6.120;2023-06-04T05:28:49;10.30;99.90
12911;DHT22;6523;49.758;6.120;2023-06-04T05:31:15;10.40;99.90
12911;DHT22;6523;49.758;6.120;2023-06-04T05:36:09;10.50;99.90
12911;DHT22;6523;49.758;6.120;2023-06-04T05:38:35;10.70;99.90
12911;DHT22;6523;49.758;6.120;2023-06-04T05:41:01;10.70;99.90
12911;DHT22;6523;49.758;6.120;2023-06-04T05:43:27;10.80;99.90
12911;DHT22;6523;49.758;6.120;2023-06-04T05:45:52;10.90;99.90
12911;DHT22;6523;49.758;6.120;2023-06-04T05:48:18;11.00;99.90
12911;DHT22;6523;49.758;6.120;2023-06-04T05:50:44;11.10;99.90
12911;DHT22;6523;49.758;6.120;2023-06-04T05:53:10;11.20;99.90
12911;DHT22;6523;49.758;6.120;2023-06-04T05:55:35;11.30;99.90
12911;DHT22;6523;49.758;6.120;2023-06-04T05:58:01;11.30;99.90
12911;DHT22;6523;49.758;6.120;2023-06-04T06:00:27;11.50;99.90
12911;DHT22;6523;49.758;6.120;2023-06-04T06:02:53;11.80;99.90
12911;DHT22;6523;49.758;6.120;2023-06-04T06:05:19;11.90;99.90
12911;DHT22;6523;49.758;6.120;2023-06-04T06:07:45;12.20;99.90
12911;DHT22;6523;49.758;6.120;2023-06-04T06:10:11;12.20;99.90
12911;DHT22;6523;49.758;6.120;2023-06-04T06:12:37;12.40;99.90
12911;DHT22;6523;49.758;6.120;2023-06-04T06:15:03;12.40;99.90
12911;DHT22;6523;49.758;6.120;2023-06-04T06:17:28;12.60;99.90
12911;DHT22;6523;49.758;6.120;2023-06-04T06:19:54;12.70;99.90
12911;DHT22;6523;49.758;6.120;2023-06-04T06:22:21;12.90;99.90
12911;DHT22;6523;49.758;6.120;2023-06-04T06:24:46;13.00;99.90
12911;DHT22;6523;49.758;6.120;2023-06-04T06:27:14;13.00;99.90
12911;DHT22;6523;49.758;6.120;2023-06-04T06:29:40;13.00;99.90
12911;DHT22;6523;49.758;6.120;2023-06-04T06:32:07;13.40;99.90
12911;DHT22;6523;49.758;6.120;2023-06-04T06:34:32;13.70;99.90
12911;DHT22;6523;49.758;6.120;2023-06-04T06:36:58;13.80;99.90
12911;DHT22;6523;49.758;6.120;2023-06-04T06:39:24;13.90;99.90
12911;DHT22;6523;49.758;6.120;2023-06-04T06:41:49;14.00;99.90
12911;DHT22;6523;49.758;6.120;2023-06-04T06:44:15;14.30;99.90
12911;DHT22;6523;49.758;6.120;2023-06-04T06:46:40;14.50;99.90
12911;DHT22;6523;49.758;6.120;2023-06-04T06:49:06;14.70;99.90
12911;DHT22;6523;49.758;6.120;2023-06-04T06:51:31;14.80;99.90
12911;DHT22;6523;49.758;6.120;2023-06-04T06:53:57;14.90;99.90
12911;DHT22;6523;49.758;6.120;2023-06-04T06:56:22;15.00;99.90
12911;DHT22;6523;49.758;6.120;2023-06-04T06:58:48;15.10;99.90
12911;DHT22;6523;49.758;6.120;2023-06-04T07:01:13;15.20;99.90
12911;DHT22;6523;49.758;6.120;2023-06-04T07:03:39;15.30;99.90
12911;DHT22;6523;49.758;6.120;2023-06-04T07:06:06;15.40;99.90
12911;DHT22;6523;49.758;6.120;2023-06-04T07:08:32;15.60;99.90
12911;DHT22;6523;49.758;6.120;2023-06-04T07:10:59;15.80;99.90
12911;DHT22;6523;49.758;6.120;2023-06-04T07:13:24;15.80;99.90
12911;DHT22;6523;49.758;6.120;2023-06-04T07:15:50;15.80;99.90
12911;DHT22;6523;49.758;6.120;2023-06-04T07:18:16;16.00;99.90
12911;DHT22;6523;49.758;6.120;2023-06-04T07:20:41;16.20;99.90
12911;DHT22;6523;49.758;6.120;2023-06-04T07:23:07;16.50;99.90
12911;DHT22;6523;49.758;6.120;2023-06-04T07:25:33;16.60;99.90
12911;DHT22;6523;49.758;6.120;2023-06-04T07:27:59;16.70;99.90
12911;DHT22;6523;49.758;6.120;2023-06-04T07:30:27;16.90;99.90
12911;DHT22;6523;49.758;6.120;2023-06-04T07:32:53;17.10;99.90
12911;DHT22;6523;49.758;6.120;2023-06-04T07:35:18;17.10;99.90
12911;DHT22;6523;49.758;6.120;2023-06-04T07:37:44;17.20;99.70
12911;DHT22;6523;49.758;6.120;2023-06-04T07:40:13;17.40;96.90
12911;DHT22;6523;49.758;6.120;2023-06-04T07:42:39;17.60;91.80
12911;DHT22;6523;49.758;6.120;2023-06-04T07:45:05;17.70;90.80
12911;DHT22;6523;49.758;6.120;2023-06-04T07:47:31;17.80;84.60
12911;DHT22;6523;49.758;6.120;2023-06-04T07:49:56;18.10;82.20
12911;DHT22;6523;49.758;6.120;2023-06-04T07:52:22;18.30;74.10
12911;DHT22;6523;49.758;6.120;2023-06-04T07:54:48;18.50;69.10
12911;DHT22;6523;49.758;6.120;2023-06-04T07:57:13;18.60;67.90
12911;DHT22;6523;49.758;6.120;2023-06-04T07:59:39;18.80;63.00
12911;DHT22;6523;49.758;6.120;2023-06-04T08:02:04;18.80;50.70
12911;DHT22;6523;49.758;6.120;2023-06-04T08:04:30;19.10;52.20
12911;DHT22;6523;49.758;6.120;2023-06-04T08:06:56;19.40;58.70
12911;DHT22;6523;49.758;6.120;2023-06-04T08:09:22;19.80;46.50
12911;DHT22;6523;49.758;6.120;2023-06-04T08:11:48;19.70;51.90
12911;DHT22;6523;49.758;6.120;2023-06-04T08:14:14;19.70;41.40
12911;DHT22;6523;49.758;6.120;2023-06-04T08:16:40;19.50;40.70
12911;DHT22;6523;49.758;6.120;2023-06-04T08:19:06;19.70;50.10
12911;DHT22;6523;49.758;6.120;2023-06-04T08:21:33;19.90;43.10
12911;DHT22;6523;49.758;6.120;2023-06-04T08:23:59;20.10;41.90
12911;DHT22;6523;49.758;6.120;2023-06-04T08:26:26;20.30;33.90
12911;DHT22;6523;49.758;6.120;2023-06-04T08:28:52;20.40;31.10
12911;DHT22;6523;49.758;6.120;2023-06-04T08:31:18;20.20;28.40
12911;DHT22;6523;49.758;6.120;2023-06-04T08:33:46;20.40;26.40
12911;DHT22;6523;49.758;6.120;2023-06-04T08:36:12;20.30;22.50
12911;DHT22;6523;49.758;6.120;2023-06-04T08:38:38;20.60;25.60
12911;DHT22;6523;49.758;6.120;2023-06-04T08:41:16;20.90;29.90
12911;DHT22;6523;49.758;6.120;2023-06-04T08:43:43;20.80;16.40
12911;DHT22;6523;49.758;6.120;2023-06-04T08:46:09;21.10;20.70
12911;DHT22;6523;49.758;6.120;2023-06-04T08:48:35;21.00;14.50
12911;DHT22;6523;49.758;6.120;2023-06-04T08:51:05;20.80;11.40
12911;DHT22;6523;49.758;6.120;2023-06-04T08:53:31;21.30;16.40
12911;DHT22;6523;49.758;6.120;2023-06-04T08:55:57;21.60;15.00
12911;DHT22;6523;49.758;6.120;2023-06-04T08:58:23;21.60;7.10
12911;DHT22;6523;49.758;6.120;2023-06-04T09:00:50;21.70;5.10
12911;DHT22;6523;49.758;6.120;2023-06-04T09:03:16;22.00;7.50
12911;DHT22;6523;49.758;6.120;2023-06-04T09:05:44;22.30;4.10
12911;DHT22;6523;49.758;6.120;2023-06-04T09:08:15;22.60;4.70
12911;DHT22;6523;49.758;6.120;2023-06-04T09:10:44;22.60;1.00
12911;DHT22;6523;49.758;6.120;2023-06-04T09:13:10;22.50;1.00
12911;DHT22;6523;49.758;6.120;2023-06-04T09:15:36;22.30;1.00
12911;DHT22;6523;49.758;6.120;2023-06-04T09:18:02;22.60;1.00
12911;DHT22;6523;49.758;6.120;2023-06-04T09:20:28;23.00;1.00
12911;DHT22;6523;49.758;6.120;2023-06-04T09:22:53;23.20;1.00
12911;DHT22;6523;49.758;6.120;2023-06-04T09:25:26;23.70;1.00
12911;DHT22;6523;49.758;6.120;2023-06-04T09:27:53;23.60;1.00
12911;DHT22;6523;49.758;6.120;2023-06-04T09:30:20;23.50;1.00
12911;DHT22;6523;49.758;6.120;2023-06-04T09:32:45;23.30;1.00
12911;DHT22;6523;49.758;6.120;2023-06-04T09:35:18;23.50;1.00
12911;DHT22;6523;49.758;6.120;2023-06-04T09:37:56;23.60;1.00
12911;DHT22;6523;49.758;6.120;2023-06-04T09:40:22;23.70;1.00
12911;DHT22;6523;49.758;6.120;2023-06-04T09:42:49;24.10;1.00
12911;DHT22;6523;49.758;6.120;2023-06-04T09:45:33;24.40;1.00
12911;DHT22;6523;49.758;6.120;2023-06-04T09:48:00;24.30;1.00
12911;DHT22;6523;49.758;6.120;2023-06-04T09:50:29;24.20;1.00
12911;DHT22;6523;49.758;6.120;2023-06-04T09:52:55;24.40;1.00
12911;DHT22;6523;49.758;6.120;2023-06-04T09:55:21;24.50;1.00
12911;DHT22;6523;49.758;6.120;2023-06-04T09:57:48;24.50;1.00
12911;DHT22;6523;49.758;6.120;2023-06-04T10:00:19;24.60;1.00
12911;DHT22;6523;49.758;6.120;2023-06-04T10:02:46;24.90;1.00
12911;DHT22;6523;49.758;6.120;2023-06-04T10:05:13;25.00;1.00
12911;DHT22;6523;49.758;6.120;2023-06-04T10:07:46;25.10;1.00
12911;DHT22;6523;49.758;6.120;2023-06-04T10:10:16;25.20;1.00
12911;DHT22;6523;49.758;6.120;2023-06-04T10:12:42;25.20;1.00
12911;DHT22;6523;49.758;6.120;2023-06-04T10:15:12;25.20;1.00
12911;DHT22;6523;49.758;6.120;2023-06-04T10:17:38;25.20;1.00
12911;DHT22;6523;49.758;6.120;2023-06-04T10:20:06;25.40;1.00
12911;DHT22;6523;49.758;6.120;2023-06-04T10:22:34;25.40;1.00
12911;DHT22;6523;49.758;6.120;2023-06-04T10:25:00;25.80;1.00
12911;DHT22;6523;49.758;6.120;2023-06-04T10:27:26;25.10;1.00
12911;DHT22;6523;49.758;6.120;2023-06-04T10:29:52;25.50;1.00
12911;DHT22;6523;49.758;6.120;2023-06-04T10:32:18;26.00;1.00
12911;DHT22;6523;49.758;6.120;2023-06-04T10:34:44;25.40;1.00
12911;DHT22;6523;49.758;6.120;2023-06-04T10:37:20;25.60;1.00
12911;DHT22;6523;49.758;6.120;2023-06-04T10:39:51;25.60;1.00
12911;DHT22;6523;49.758;6.120;2023-06-04T10:42:17;26.00;1.00
12911;DHT22;6523;49.758;6.120;2023-06-04T10:44:46;26.20;1.00
12911;DHT22;6523;49.758;6.120;2023-06-04T10:47:25;26.10;1.00
12911;DHT22;6523;49.758;6.120;2023-06-04T10:49:54;26.50;1.00
12911;DHT22;6523;49.758;6.120;2023-06-04T10:52:21;26.00;1.00
12911;DHT22;6523;49.758;6.120;2023-06-04T10:54:47;26.40;1.00
12911;DHT22;6523;49.758;6.120;2023-06-04T10:57:19;26.20;1.00
12911;DHT22;6523;49.758;6.120;2023-06-04T10:59:58;26.50;1.00
12911;DHT22;6523;49.758;6.120;2023-06-04T11:02:25;26.30;1.00
12911;DHT22;6523;49.758;6.120;2023-06-04T11:05:06;26.30;1.00
12911;DHT22;6523;49.758;6.120;2023-06-04T11:07:45;26.20;1.00
12911;DHT22;6523;49.758;6.120;2023-06-04T11:10:15;26.50;1.00
12911;DHT22;6523;49.758;6.120;2023-06-04T11:15:11;26.30;1.00
12911;DHT22;6523;49.758;6.120;2023-06-04T11:17:37;26.80;1.00
12911;DHT22;6523;49.758;6.120;2023-06-04T11:20:02;26.70;1.00
12911;DHT22;6523;49.758;6.120;2023-06-04T11:22:32;26.60;1.00
12911;DHT22;6523;49.758;6.120;2023-06-04T11:24:58;27.10;1.00
12911;DHT22;6523;49.758;6.120;2023-06-04T11:27:27;27.10;1.00
12911;DHT22;6523;49.758;6.120;2023-06-04T11:29:53;27.10;1.00
12911;DHT22;6523;49.758;6.120;2023-06-04T11:32:23;27.10;1.00
12911;DHT22;6523;49.758;6.120;2023-06-04T11:34:49;27.40;1.00
12911;DHT22;6523;49.758;6.120;2023-06-04T11:37:14;27.70;1.00
12911;DHT22;6523;49.758;6.120;2023-06-04T11:39:40;27.70;1.00
12911;DHT22;6523;49.758;6.120;2023-06-04T11:42:08;27.90;1.00
12911;DHT22;6523;49.758;6.120;2023-06-04T11:44:34;27.80;1.00
12911;DHT22;6523;49.758;6.120;2023-06-04T11:46:59;27.20;1.00
12911;DHT22;6523;49.758;6.120;2023-06-04T11:49:25;27.70;1.00
12911;DHT22;6523;49.758;6.120;2023-06-04T11:51:53;27.50;1.00
12911;DHT22;6523;49.758;6.120;2023-06-04T11:54:20;27.90;1.00
12911;DHT22;6523;49.758;6.120;2023-06-04T11:56:48;28.00;1.00
12911;DHT22;6523;49.758;6.120;2023-06-04T11:59:15;28.50;1.00
12911;DHT22;6523;49.758;6.120;2023-06-04T12:01:41;28.20;1.00
12911;DHT22;6523;49.758;6.120;2023-06-04T12:04:18;27.90;1.00
12911;DHT22;6523;49.758;6.120;2023-06-04T12:07:10;28.00;1.00
12911;DHT22;6523;49.758;6.120;2023-06-04T12:09:36;28.20;1.00
12911;DHT22;6523;49.758;6.120;2023-06-04T12:12:07;28.30;1.00
12911;DHT22;6523;49.758;6.120;2023-06-04T12:14:33;28.20;1.00
12911;DHT22;6523;49.758;6.120;2023-06-04T12:17:06;28.70;1.00
12911;DHT22;6523;49.758;6.120;2023-06-04T12:19:32;28.90;1.00
12911;DHT22;6523;49.758;6.120;2023-06-04T12:22:06;28.80;1.00
12911;DHT22;6523;49.758;6.120;2023-06-04T12:24:33;28.90;1.00
12911;DHT22;6523;49.758;6.120;2023-06-04T12:27:05;28.80;1.00
12911;DHT22;6523;49.758;6.120;2023-06-04T12:29:32;29.00;1.00
12911;DHT22;6523;49.758;6.120;2023-06-04T12:32:09;29.50;1.00
12911;DHT22;6523;49.758;6.120;2023-06-04T12:34:35;29.70;1.00
12911;DHT22;6523;49.758;6.120;2023-06-04T12:37:01;29.50;1.00
12911;DHT22;6523;49.758;6.120;2023-06-04T12:39:29;29.60;1.00
12911;DHT22;6523;49.758;6.120;2023-06-04T12:41:55;29.10;1.00
12911;DHT22;6523;49.758;6.120;2023-06-04T12:44:20;29.40;1.00
12911;DHT22;6523;49.758;6.120;2023-06-04T12:46:46;29.30;1.00
12911;DHT22;6523;49.758;6.120;2023-06-04T12:49:12;29.30;1.00
12911;DHT22;6523;49.758;6.120;2023-06-04T12:51:38;29.10;1.00
12911;DHT22;6523;49.758;6.120;2023-06-04T12:54:04;28.60;1.00
12911;DHT22;6523;49.758;6.120;2023-06-04T12:56:30;28.90;1.00
12911;DHT22;6523;49.758;6.120;2023-06-04T12:58:55;29.30;1.00
12911;DHT22;6523;49.758;6.120;2023-06-04T13:01:21;29.20;1.00
12911;DHT22;6523;49.758;6.120;2023-06-04T13:03:47;29.00;1.00
12911;DHT22;6523;49.758;6.120;2023-06-04T13:06:12;29.30;1.00
12911;DHT22;6523;49.758;6.120;2023-06-04T13:08:38;29.30;1.00
12911;DHT22;6523;49.758;6.120;2023-06-04T13:11:03;29.50;1.00
12911;DHT22;6523;49.758;6.120;2023-06-04T13:13:29;29.00;1.00
12911;DHT22;6523;49.758;6.120;2023-06-04T13:15:55;28.50;1.00
12911;DHT22;6523;49.758;6.120;2023-06-04T13:18:21;27.80;1.00
12911;DHT22;6523;49.758;6.120;2023-06-04T13:20:47;28.30;1.00
12911;DHT22;6523;49.758;6.120;2023-06-04T13:23:14;29.10;1.00
12911;DHT22;6523;49.758;6.120;2023-06-04T13:25:40;29.40;1.00
12911;DHT22;6523;49.758;6.120;2023-06-04T13:28:05;29.30;1.00
12911;DHT22;6523;49.758;6.120;2023-06-04T13:30:31;29.60;1.00
12911;DHT22;6523;49.758;6.120;2023-06-04T13:32:57;29.10;1.00
12911;DHT22;6523;49.758;6.120;2023-06-04T13:35:25;28.40;1.00
12911;DHT22;6523;49.758;6.120;2023-06-04T13:37:51;28.40;1.00
12911;DHT22;6523;49.758;6.120;2023-06-04T13:40:16;29.60;1.00
12911;DHT22;6523;49.758;6.120;2023-06-04T13:42:42;29.10;1.00
12911;DHT22;6523;49.758;6.120;2023-06-04T13:45:08;29.30;1.00
12911;DHT22;6523;49.758;6.120;2023-06-04T13:47:34;29.50;1.00
12911;DHT22;6523;49.758;6.120;2023-06-04T13:50:00;29.40;1.00
12911;DHT22;6523;49.758;6.120;2023-06-04T13:52:25;29.10;1.00
12911;DHT22;6523;49.758;6.120;2023-06-04T13:54:53;29.10;1.00
12911;DHT22;6523;49.758;6.120;2023-06-04T13:57:19;29.50;1.00
12911;DHT22;6523;49.758;6.120;2023-06-04T13:59:45;29.20;1.00
12911;DHT22;6523;49.758;6.120;2023-06-04T14:02:10;29.20;1.00
12911;DHT22;6523;49.758;6.120;2023-06-04T14:04:36;29.80;1.00
12911;DHT22;6523;49.758;6.120;2023-06-04T14:07:01;29.60;1.00
12911;DHT22;6523;49.758;6.120;2023-06-04T14:09:27;29.00;1.00
12911;DHT22;6523;49.758;6.120;2023-06-04T14:11:53;29.20;1.00
12911;DHT22;6523;49.758;6.120;2023-06-04T14:14:20;29.80;1.00
12911;DHT22;6523;49.758;6.120;2023-06-04T14:16:47;29.90;1.00
12911;DHT22;6523;49.758;6.120;2023-06-04T14:19:13;30.10;1.00
12911;DHT22;6523;49.758;6.120;2023-06-04T14:21:40;30.10;1.00
12911;DHT22;6523;49.758;6.120;2023-06-04T14:24:05;29.90;1.00
12911;DHT22;6523;49.758;6.120;2023-06-04T14:26:31;29.50;1.00
12911;DHT22;6523;49.758;6.120;2023-06-04T14:28:57;29.40;1.00
12911;DHT22;6523;49.758;6.120;2023-06-04T14:31:23;29.50;1.00
12911;DHT22;6523;49.758;6.120;2023-06-04T14:33:49;29.80;1.00
12911;DHT22;6523;49.758;6.120;2023-06-04T14:36:14;30.20;1.00
12911;DHT22;6523;49.758;6.120;2023-06-04T14:38:40;30.30;1.00
12911;DHT22;6523;49.758;6.120;2023-06-04T14:41:06;29.80;1.00
12911;DHT22;6523;49.758;6.120;2023-06-04T14:43:32;30.00;1.00
12911;DHT22;6523;49.758;6.120;2023-06-04T14:45:57;29.60;1.00
12911;DHT22;6523;49.758;6.120;2023-06-04T14:48:23;29.60;1.00
12911;DHT22;6523;49.758;6.120;2023-06-04T14:50:49;29.20;1.00
12911;DHT22;6523;49.758;6.120;2023-06-04T14:53:19;29.00;1.00
12911;DHT22;6523;49.758;6.120;2023-06-04T14:55:44;29.40;1.00
12911;DHT22;6523;49.758;6.120;2023-06-04T14:58:11;29.50;1.00
12911;DHT22;6523;49.758;6.120;2023-06-04T15:00:37;29.50;1.00
12911;DHT22;6523;49.758;6.120;2023-06-04T15:03:02;29.50;1.00
12911;DHT22;6523;49.758;6.120;2023-06-04T15:05:28;28.90;1.00
12911;DHT22;6523;49.758;6.120;2023-06-04T15:07:54;29.40;1.00
12911;DHT22;6523;49.758;6.120;2023-06-04T15:10:20;29.70;1.00
12911;DHT22;6523;49.758;6.120;2023-06-04T15:12:45;29.70;1.00
12911;DHT22;6523;49.758;6.120;2023-06-04T15:15:11;29.70;1.00
12911;DHT22;6523;49.758;6.120;2023-06-04T15:17:37;29.60;1.00
12911;DHT22;6523;49.758;6.120;2023-06-04T15:20:03;29.50;1.00
12911;DHT22;6523;49.758;6.120;2023-06-04T15:22:29;29.00;1.00
12911;DHT22;6523;49.758;6.120;2023-06-04T15:24:55;29.20;1.00
12911;DHT22;6523;49.758;6.120;2023-06-04T15:27:20;29.10;1.00
12911;DHT22;6523;49.758;6.120;2023-06-04T15:29:46;28.70;1.00
12911;DHT22;6523;49.758;6.120;2023-06-04T15:32:12;28.90;1.00
12911;DHT22;6523;49.758;6.120;2023-06-04T15:34:38;28.90;1.00
12911;DHT22;6523;49.758;6.120;2023-06-04T15:37:03;28.80;1.00
12911;DHT22;6523;49.758;6.120;2023-06-04T15:39:29;29.10;1.00
12911;DHT22;6523;49.758;6.120;2023-06-04T15:41:55;28.60;1.00
12911;DHT22;6523;49.758;6.120;2023-06-04T15:44:21;28.80;1.00
12911;DHT22;6523;49.758;6.120;2023-06-04T15:46:49;28.90;1.00
12911;DHT22;6523;49.758;6.120;2023-06-04T15:49:14;28.30;1.00
12911;DHT22;6523;49.758;6.120;2023-06-04T15:51:40;27.90;1.00
12911;DHT22;6523;49.758;6.120;2023-06-04T15:54:06;28.70;1.00
12911;DHT22;6523;49.758;6.120;2023-06-04T15:56:32;28.50;1.00
12911;DHT22;6523;49.758;6.120;2023-06-04T15:58:57;28.60;1.00
12911;DHT22;6523;49.758;6.120;2023-06-04T16:01:23;28.60;1.00
12911;DHT22;6523;49.758;6.120;2023-06-04T16:03:50;28.40;1.00
12911;DHT22;6523;49.758;6.120;2023-06-04T16:06:17;28.70;1.00